Time;durP1;ratioP1;P1;durP2;ratioP2;P2;SDS_P1;SDS_P2;PMS_P1;PMS_P2;Temp;Humidity;BMP_temperature;BMP_pressure;BME280_temperature;BME280_humidity;BME280_pressure;Samples;Min_cycle;Max_cycle;Signal;HPM_P1;HPM_P2
2020/12/01 00:01:50;;;;;;;47.75;14.55;;;2.40;99.90;;;;;;5009508;28;20046;-63
2020/12/01 00:04:17;;;;;;;34.05;12.02;;;2.40;99.90;;;;;;5039013;28;20479;-64
2020/12/01 00:06:44;;;;;;;45.13;13.98;;;2.40;99.90;;;;;;5009089;28;20049;-63
2020/12/01 00:09:13;;;;;;;42.42;12.40;;;2.40;99.90;;;;;;5019517;28;20045;-63
2020/12/01 00:11:40;;;;;;;40.58;12.82;;;2.30;99.90;;;;;;5018803;28;20038;-63
2020/12/01 00:14:06;;;;;;;42.40;13.15;;;2.30;99.90;;;;;;5006825;28;20073;-63
2020/12/01 00:16:33;;;;;;;43.95;12.50;;;2.30;99.90;;;;;;5009571;28;20433;-63
2020/12/01 00:19:00;;;;;;;32.78;11.05;;;2.30;99.90;;;;;;5009372;28;20370;-63
2020/12/01 00:21:26;;;;;;;44.47;12.23;;;2.30;99.90;;;;;;5012637;28;20551;-63
2020/12/01 00:23:53;;;;;;;32.33;12.05;;;2.40;99.90;;;;;;5009784;28;20062;-63
2020/12/01 00:26:20;;;;;;;40.35;12.55;;;2.30;99.90;;;;;;5011172;28;20060;-63
2020/12/01 00:28:48;;;;;;;40.38;11.05;;;2.40;99.90;;;;;;5011800;28;20053;-63
2020/12/01 00:31:17;;;;;;;37.45;11.13;;;2.40;99.90;;;;;;4999842;28;20042;-63
2020/12/01 00:33:45;;;;;;;36.38;12.10;;;2.40;99.90;;;;;;5010797;28;20042;-63
2020/12/01 00:36:11;;;;;;;36.85;11.85;;;2.40;99.90;;;;;;5008816;28;20054;-63
2020/12/01 00:38:38;;;;;;;34.85;11.48;;;2.40;99.90;;;;;;5014438;28;20045;-63
2020/12/01 00:41:06;;;;;;;44.03;13.18;;;2.40;99.90;;;;;;5006336;28;20045;-63
2020/12/01 00:43:32;;;;;;;37.97;12.70;;;2.40;99.90;;;;;;5009018;28;20065;-63
2020/12/01 00:45:59;;;;;;;40.42;12.93;;;2.40;99.90;;;;;;5010689;28;20727;-63
2020/12/01 00:48:26;;;;;;;38.75;12.27;;;2.30;99.90;;;;;;4999716;28;20417;-63
2020/12/01 00:50:52;;;;;;;39.58;14.30;;;2.30;99.90;;;;;;5007305;28;20133;-63
2020/12/01 00:53:19;;;;;;;39.92;12.32;;;2.30;99.90;;;;;;5022396;28;20069;-63
2020/12/01 00:55:48;;;;;;;40.17;12.38;;;2.30;99.90;;;;;;5016054;28;20143;-63
2020/12/01 00:58:14;;;;;;;36.53;11.73;;;2.30;99.90;;;;;;5020979;28;20132;-63
2020/12/01 01:01:01;;;;;;;33.85;11.35;;;2.40;99.90;;;;;;5008645;28;20060;-63
2020/12/01 01:03:28;;;;;;;38.63;11.18;;;2.30;99.90;;;;;;5024722;28;20569;-63
2020/12/01 01:05:54;;;;;;;35.15;10.20;;;2.30;99.90;;;;;;5014038;28;20543;-63
2020/12/01 01:08:21;;;;;;;29.30;11.07;;;2.30;99.90;;;;;;5011627;28;20049;-63
2020/12/01 01:10:48;;;;;;;35.65;11.25;;;2.30;99.90;;;;;;5012573;28;20054;-63
2020/12/01 01:13:14;;;;;;;28.05;9.90;;;2.20;99.90;;;;;;5012670;28;20468;-63
2020/12/01 01:15:41;;;;;;;31.98;10.60;;;2.10;99.90;;;;;;5012677;28;20050;-63
2020/12/01 01:18:08;;;;;;;36.85;11.95;;;2.10;99.90;;;;;;5008304;28;20095;-63
2020/12/01 01:20:35;;;;;;;34.60;10.50;;;2.00;99.90;;;;;;5020623;28;20050;-63
2020/12/01 01:23:02;;;;;;;37.65;11.68;;;1.90;99.90;;;;;;5021402;28;20069;-63
2020/12/01 01:25:29;;;;;;;38.00;10.70;;;1.90;99.90;;;;;;5014767;28;20076;-63
2020/12/01 01:27:56;;;;;;;33.58;10.82;;;1.80;99.90;;;;;;5012976;28;20076;-63
2020/12/01 01:30:23;;;;;;;38.10;12.20;;;1.70;99.90;;;;;;5011765;28;20053;-63
2020/12/01 01:32:50;;;;;;;32.90;11.80;;;1.60;99.90;;;;;;5011686;28;20060;-63
2020/12/01 01:35:17;;;;;;;36.42;11.00;;;1.60;99.90;;;;;;5023583;28;20041;-63
2020/12/01 01:37:43;;;;;;;42.15;11.00;;;1.50;99.90;;;;;;5012097;28;20497;-64
2020/12/01 01:40:17;;;;;;;38.15;10.52;;;1.50;99.90;;;;;;5008507;28;20042;-63
2020/12/01 01:42:44;;;;;;;40.67;12.35;;;1.40;99.90;;;;;;5011672;28;20042;-63
2020/12/01 01:45:11;;;;;;;39.45;11.23;;;1.30;99.90;;;;;;5058391;28;20459;-63
2020/12/01 01:47:38;;;;;;;39.47;11.25;;;1.30;99.90;;;;;;5011669;28;20046;-63
2020/12/01 01:50:18;;;;;;;38.28;10.93;;;1.20;99.90;;;;;;5013007;28;20427;-64
2020/12/01 01:52:49;;;;;;;34.95;10.68;;;1.20;99.90;;;;;;5013624;28;20045;-63
2020/12/01 01:55:24;;;;;;;34.83;10.60;;;1.10;99.90;;;;;;5014325;28;20041;-63
2020/12/01 01:57:58;;;;;;;32.47;10.35;;;1.00;99.90;;;;;;5010506;28;20038;-64
2020/12/01 02:03:43;;;;;;;34.00;10.40;;;0.90;99.90;;;;;;5009982;28;20044;-64
2020/12/01 02:06:38;;;;;;;35.00;10.20;;;0.80;99.90;;;;;;5003205;28;20049;-64
2020/12/01 02:09:08;;;;;;;30.50;11.27;;;0.80;99.90;;;;;;5020894;28;20108;-64
2020/12/01 02:11:37;;;;;;;33.42;11.98;;;0.70;99.90;;;;;;5024826;28;20041;-64
2020/12/01 02:14:15;;;;;;;33.30;10.65;;;0.70;99.90;;;;;;5015416;28;20072;-64
2020/12/01 02:16:54;;;;;;;37.47;9.80;;;0.70;99.90;;;;;;5021862;28;20485;-65
2020/12/01 02:19:24;;;;;;;29.23;9.25;;;0.60;99.90;;;;;;5013998;28;20034;-64
2020/12/01 02:21:51;;;;;;;42.40;11.45;;;0.60;99.90;;;;;;5015516;28;20033;-64
2020/12/01 02:24:20;;;;;;;31.30;10.48;;;0.50;99.90;;;;;;5009440;28;20045;-64
2020/12/01 02:26:50;;;;;;;34.42;10.20;;;0.50;99.90;;;;;;5011112;28;20052;-64
2020/12/01 02:29:19;;;;;;;30.40;9.55;;;0.40;99.90;;;;;;5011950;28;20038;-65
2020/12/01 02:31:46;;;;;;;36.88;10.35;;;0.40;99.90;;;;;;5012717;28;20041;-64
2020/12/01 02:34:15;;;;;;;33.47;11.10;;;0.30;99.90;;;;;;5042325;28;20034;-64
2020/12/01 02:36:42;;;;;;;31.27;9.68;;;0.30;99.90;;;;;;5011539;28;20040;-64
2020/12/01 02:39:11;;;;;;;34.80;10.82;;;0.30;99.90;;;;;;5012843;28;20044;-64
2020/12/01 02:41:38;;;;;;;40.00;11.25;;;0.20;99.90;;;;;;5011149;28;20452;-64
2020/12/01 02:44:06;;;;;;;34.38;10.65;;;0.20;99.90;;;;;;5008609;28;20042;-64
2020/12/01 02:46:35;;;;;;;35.10;10.63;;;0.20;99.90;;;;;;5010445;28;20053;-64
2020/12/01 02:49:04;;;;;;;34.28;10.98;;;0.10;99.90;;;;;;5011352;28;20489;-64
2020/12/01 02:51:32;;;;;;;35.95;10.27;;;0.10;99.90;;;;;;5014846;28;20060;-63
2020/12/01 02:53:59;;;;;;;32.13;11.40;;;0.10;99.90;;;;;;5008863;28;20046;-64
2020/12/01 02:56:26;;;;;;;41.72;10.27;;;0.00;99.90;;;;;;5016335;28;20046;-63
2020/12/01 02:58:52;;;;;;;33.72;9.90;;;0.00;99.90;;;;;;5010803;28;20038;-63
2020/12/01 03:01:19;;;;;;;33.60;10.38;;;0.00;99.90;;;;;;5006914;28;20497;-63
2020/12/01 03:03:47;;;;;;;34.13;11.30;;;-0.10;99.90;;;;;;4992899;28;20042;-63
2020/12/01 03:06:17;;;;;;;41.72;11.63;;;-0.10;99.90;;;;;;5008058;28;20057;-63
2020/12/01 03:08:44;;;;;;;39.65;10.88;;;-0.10;99.90;;;;;;5039124;28;20039;-63
2020/12/01 03:11:12;;;;;;;38.03;11.20;;;-0.10;99.90;;;;;;5017289;28;20381;-63
2020/12/01 03:13:39;;;;;;;34.97;10.80;;;-0.20;99.90;;;;;;5017896;28;20519;-63
2020/12/01 03:16:09;;;;;;;38.33;10.27;;;-0.10;99.90;;;;;;5018218;28;20384;-63
2020/12/01 03:18:42;;;;;;;39.92;10.38;;;-0.20;99.90;;;;;;5023256;28;20048;-63
2020/12/01 03:21:11;;;;;;;33.03;10.77;;;-0.20;99.90;;;;;;5039049;28;20053;-63
2020/12/01 03:23:38;;;;;;;27.30;9.57;;;-0.30;99.90;;;;;;5018236;28;20488;-63
2020/12/01 03:26:06;;;;;;;35.15;10.55;;;-0.30;99.90;;;;;;5021312;28;20104;-63
2020/12/01 03:28:33;;;;;;;34.58;9.98;;;-0.30;99.90;;;;;;5021729;28;20049;-63
2020/12/01 03:30:59;;;;;;;33.67;9.63;;;-0.40;99.90;;;;;;5024220;28;20049;-63
2020/12/01 03:33:26;;;;;;;27.75;9.48;;;-0.40;99.90;;;;;;5015062;28;20053;-63
2020/12/01 03:35:54;;;;;;;29.50;9.57;;;-0.40;99.90;;;;;;5039335;28;20041;-63
2020/12/01 03:38:20;;;;;;;35.58;10.20;;;-0.50;99.90;;;;;;5008275;28;20044;-63
2020/12/01 03:40:47;;;;;;;29.48;9.18;;;-0.50;99.90;;;;;;5008361;28;20046;-63
2020/12/01 03:43:14;;;;;;;30.13;9.90;;;-0.50;99.90;;;;;;5009213;28;20409;-63
2020/12/01 03:45:41;;;;;;;30.88;10.20;;;-0.50;99.90;;;;;;5010094;28;20038;-63
2020/12/01 03:48:08;;;;;;;36.03;11.05;;;-0.60;99.90;;;;;;5010315;28;20484;-63
2020/12/01 03:50:36;;;;;;;32.08;11.00;;;-0.60;99.90;;;;;;5011335;28;20081;-63
2020/12/01 03:53:03;;;;;;;34.90;11.48;;;-0.60;99.90;;;;;;5009083;28;20041;-63
2020/12/01 03:55:29;;;;;;;31.45;10.98;;;-0.60;99.90;;;;;;5008454;28;20054;-63
2020/12/01 03:57:56;;;;;;;37.08;9.80;;;-0.70;99.90;;;;;;5009157;28;20381;-63
2020/12/01 04:00:25;;;;;;;34.20;9.07;;;-0.70;99.90;;;;;;5003627;28;20484;-63
2020/12/01 04:02:53;;;;;;;35.88;10.55;;;-0.70;99.90;;;;;;5002714;28;20515;-63
2020/12/01 04:05:22;;;;;;;37.28;10.77;;;-0.70;99.90;;;;;;5010376;28;20501;-63
2020/12/01 04:07:51;;;;;;;30.55;11.77;;;-0.70;99.90;;;;;;5008361;28;20054;-63
2020/12/01 04:10:20;;;;;;;41.50;13.55;;;-0.80;99.90;;;;;;5018379;28;20500;-63
2020/12/01 04:12:46;;;;;;;41.13;10.98;;;-0.80;99.90;;;;;;5012345;28;20096;-63
2020/12/01 04:15:17;;;;;;;38.72;12.60;;;-0.80;99.90;;;;;;5014569;28;20045;-63
2020/12/01 04:17:44;;;;;;;37.28;11.98;;;-0.80;99.90;;;;;;5007394;28;20485;-63
2020/12/01 04:20:11;;;;;;;37.60;12.25;;;-0.80;99.90;;;;;;5009918;28;20050;-63
2020/12/01 04:22:38;;;;;;;39.67;12.88;;;-0.80;99.90;;;;;;5007854;28;20404;-63
2020/12/01 04:25:08;;;;;;;36.95;11.45;;;-0.80;99.90;;;;;;5008921;28;20037;-63
2020/12/01 04:27:36;;;;;;;42.03;13.30;;;-0.80;99.90;;;;;;5010357;28;20474;-63
2020/12/01 04:30:05;;;;;;;42.35;12.10;;;-0.80;99.90;;;;;;5010151;28;20477;-63
2020/12/01 04:32:31;;;;;;;47.47;12.82;;;-0.80;99.90;;;;;;5008251;28;20072;-63
2020/12/01 04:34:58;;;;;;;47.55;13.27;;;-0.80;99.90;;;;;;5010252;28;20052;-63
2020/12/01 04:37:24;;;;;;;50.60;13.57;;;-0.70;99.90;;;;;;5009068;28;20038;-63
2020/12/01 04:39:51;;;;;;;60.17;16.85;;;-0.80;99.90;;;;;;5010357;28;20567;-63
2020/12/01 04:42:22;;;;;;;48.08;15.18;;;-0.70;99.90;;;;;;5012787;28;20038;-63
2020/12/01 04:44:56;;;;;;;42.05;14.13;;;-0.70;99.90;;;;;;5014381;28;20038;-63
2020/12/01 04:47:49;;;;;;;63.28;16.05;;;-0.70;99.90;;;;;;5012662;28;20037;-63
2020/12/01 04:50:28;;;;;;;45.03;13.85;;;-0.70;99.90;;;;;;5016724;28;20057;-63
2020/12/01 04:53:04;;;;;;;45.25;15.55;;;-0.60;99.90;;;;;;5012629;28;20501;-63
2020/12/01 04:55:49;;;;;;;41.45;14.88;;;-0.60;99.90;;;;;;5012033;28;20059;-64
2020/12/01 04:58:37;;;;;;;47.33;14.18;;;-0.60;99.90;;;;;;5012939;28;20073;-63
2020/12/01 05:01:04;;;;;;;47.90;15.27;;;-0.60;99.90;;;;;;5009864;28;20053;-63
2020/12/01 05:03:40;;;;;;;44.25;13.75;;;-0.60;99.90;;;;;;5016629;28;20068;-63
2020/12/01 05:09:17;;;;;;;48.30;14.82;;;-0.60;99.90;;;;;;5015364;28;20042;-63
2020/12/01 05:11:51;;;;;;;46.92;14.15;;;-0.60;99.90;;;;;;5022613;28;20081;-64
2020/12/01 05:14:33;;;;;;;42.95;15.07;;;-0.60;99.90;;;;;;5013032;28;20041;-63
2020/12/01 05:17:23;;;;;;;42.47;15.32;;;-0.60;99.90;;;;;;5023133;28;20104;-63
2020/12/01 05:19:49;;;;;;;48.70;15.82;;;-0.50;99.90;;;;;;5015057;28;20484;-63
2020/12/01 05:22:18;;;;;;;45.08;15.15;;;-0.60;99.90;;;;;;5013767;28;20046;-63
2020/12/01 05:24:50;;;;;;;45.88;14.73;;;-0.50;99.90;;;;;;5017441;28;20049;-63
2020/12/01 05:27:34;;;;;;;69.38;22.38;;;-0.50;99.90;;;;;;5010912;28;20049;-63
2020/12/01 05:30:12;;;;;;;60.80;21.48;;;-0.50;99.90;;;;;;5031177;28;20057;-63
2020/12/01 05:32:53;;;;;;;50.13;18.77;;;-0.50;99.90;;;;;;5011360;28;20049;-64
2020/12/01 05:35:29;;;;;;;53.53;18.77;;;-0.50;99.90;;;;;;5006676;28;20053;-63
2020/12/01 05:37:57;;;;;;;60.70;17.48;;;-0.50;99.90;;;;;;5007864;28;20056;-64
2020/12/01 05:40:26;;;;;;;55.70;17.77;;;-0.50;99.90;;;;;;5003765;28;20042;-63
2020/12/01 05:42:53;;;;;;;63.13;20.08;;;-0.50;99.90;;;;;;5007659;28;20050;-63
2020/12/01 05:45:34;;;;;;;56.38;20.88;;;-0.50;99.90;;;;;;5024259;28;20447;-63
2020/12/01 05:48:33;;;;;;;60.35;21.77;;;-0.40;99.90;;;;;;5029715;28;20047;-63
2020/12/01 05:51:12;;;;;;;63.53;21.40;;;-0.40;99.90;;;;;;5019477;28;20067;-63
2020/12/01 05:53:40;;;;;;;61.83;21.40;;;-0.30;99.90;;;;;;5023612;28;20049;-63
2020/12/01 05:56:15;;;;;;;92.50;27.17;;;-0.30;99.90;;;;;;5030580;28;20042;-63
2020/12/01 05:58:47;;;;;;;96.80;26.95;;;-0.30;99.90;;;;;;5025487;28;20037;-63
2020/12/01 06:01:14;;;;;;;81.88;26.15;;;-0.30;99.90;;;;;;5033485;28;20057;-63
2020/12/01 06:03:43;;;;;;;65.97;23.00;;;-0.20;99.90;;;;;;5014880;28;20045;-63
2020/12/01 06:06:13;;;;;;;54.58;21.17;;;-0.20;99.90;;;;;;5039150;28;20123;-63
2020/12/01 06:08:48;;;;;;;85.72;24.65;;;-0.20;99.90;;;;;;5030406;28;20064;-63
2020/12/01 06:11:39;;;;;;;102.45;28.92;;;-0.20;99.90;;;;;;4999874;28;20166;-63
2020/12/01 06:14:24;;;;;;;81.40;27.08;;;-0.20;99.90;;;;;;5011246;28;20061;-63
2020/12/01 06:16:55;;;;;;;82.65;25.98;;;-0.10;99.90;;;;;;5026224;28;20057;-63
2020/12/01 06:19:29;;;;;;;78.47;26.23;;;-0.10;99.90;;;;;;5033701;28;20041;-63
2020/12/01 06:22:20;;;;;;;79.97;24.77;;;-0.10;99.90;;;;;;5008388;28;20083;-63
2020/12/01 06:25:05;;;;;;;64.35;22.13;;;-0.10;99.90;;;;;;5010215;28;20041;-63
2020/12/01 06:27:52;;;;;;;70.28;21.80;;;0.00;99.90;;;;;;5018583;28;20075;-64
2020/12/01 06:30:53;;;;;;;71.93;23.58;;;0.00;99.90;;;;;;5018710;28;20047;-65
2020/12/01 06:33:43;;;;;;;76.28;25.17;;;0.10;99.90;;;;;;5007404;28;20078;-63
2020/12/01 06:36:41;;;;;;;82.85;25.55;;;0.20;99.90;;;;;;5008450;28;20042;-63
2020/12/01 06:39:16;;;;;;;107.68;30.48;;;0.20;99.90;;;;;;5010451;28;20065;-63
2020/12/01 06:42:00;;;;;;;100.88;33.20;;;0.20;99.90;;;;;;5025350;28;20069;-63
2020/12/01 06:44:27;;;;;;;99.50;28.60;;;0.30;99.90;;;;;;5011860;28;20801;-64
2020/12/01 06:46:57;;;;;;;85.55;27.52;;;0.30;99.90;;;;;;5013097;28;20041;-64
2020/12/01 06:49:27;;;;;;;72.93;26.60;;;0.40;99.90;;;;;;5010302;28;20065;-64
2020/12/01 06:52:14;;;;;;;70.05;27.10;;;0.40;99.90;;;;;;5021464;28;20045;-64
2020/12/01 06:54:56;;;;;;;70.30;25.17;;;0.40;99.90;;;;;;5008034;28;20050;-63
2020/12/01 06:57:29;;;;;;;73.22;23.90;;;0.50;99.90;;;;;;5010559;28;20052;-63
2020/12/01 06:59:57;;;;;;;60.33;23.08;;;0.60;99.90;;;;;;5009397;28;20034;-63
2020/12/01 07:02:33;;;;;;;66.55;22.48;;;0.60;99.90;;;;;;5012560;28;20041;-63
2020/12/01 07:05:11;;;;;;;87.65;26.65;;;0.70;99.90;;;;;;5008360;28;20044;-63
2020/12/01 07:07:42;;;;;;;53.95;17.63;;;0.80;99.90;;;;;;5009755;28;20044;-64
2020/12/01 07:10:28;;;;;;;82.88;26.20;;;0.90;99.90;;;;;;5009951;28;20065;-64
2020/12/01 07:13:19;;;;;;;110.05;33.40;;;0.90;99.90;;;;;;5012214;28;20044;-63
2020/12/01 07:15:51;;;;;;;131.77;37.65;;;0.90;99.90;;;;;;5025876;28;20042;-64
2020/12/01 07:18:31;;;;;;;80.07;27.30;;;1.00;99.90;;;;;;5012545;28;20045;-63
2020/12/01 07:21:14;;;;;;;61.67;19.73;;;1.00;99.90;;;;;;5009779;28;20048;-63
2020/12/01 07:23:40;;;;;;;;;;;1.00;99.90;;;;;;5001387;28;20046;-63
2020/12/01 07:26:27;;;;;;;55.00;18.00;;;1.00;99.90;;;;;;5043612;28;20388;-63
2020/12/01 07:29:35;;;;;;;46.70;19.27;;;1.10;99.90;;;;;;5016925;28;20054;-64
2020/12/01 07:32:14;;;;;;;60.70;21.48;;;1.10;99.90;;;;;;4998970;28;20540;-64
2020/12/01 07:34:42;;;;;;;59.13;22.00;;;1.10;99.90;;;;;;5010213;28;20497;-63
2020/12/01 07:37:45;;;;;;;87.50;26.77;;;1.20;99.90;;;;;;5012396;28;20038;-62
2020/12/01 07:40:23;;;;;;;58.05;19.73;;;1.20;99.90;;;;;;5008063;28;20061;-64
2020/12/01 07:42:57;;;;;;;64.15;20.77;;;1.30;99.90;;;;;;5038831;28;20489;-64
2020/12/01 07:45:23;;;;;;;53.17;17.48;;;1.40;99.90;;;;;;5014265;28;20061;-64
2020/12/01 07:48:02;;;;;;;70.53;24.38;;;1.50;99.90;;;;;;5002968;28;20053;-64
2020/12/01 07:50:31;;;;;;;67.90;24.98;;;1.60;99.90;;;;;;5009287;28;20057;-63
2020/12/01 07:53:06;;;;;;;51.70;18.90;;;1.60;99.90;;;;;;5006386;28;20045;-63
2020/12/01 07:55:56;;;;;;;57.70;19.73;;;1.70;99.90;;;;;;5004439;28;20046;-63
2020/12/01 07:58:25;;;;;;;51.05;17.35;;;1.70;99.90;;;;;;5007299;28;20423;-64
2020/12/01 08:00:59;;;;;;;51.17;15.85;;;1.80;99.90;;;;;;5020649;28;20054;-63
2020/12/01 08:03:29;;;;;;;52.22;16.40;;;1.80;99.90;;;;;;5017535;28;20531;-63
2020/12/01 08:06:02;;;;;;;59.55;20.25;;;2.00;99.90;;;;;;5009528;28;20041;-63
2020/12/01 08:08:33;;;;;;;47.78;17.48;;;2.00;99.90;;;;;;5021182;28;20046;-63
2020/12/01 08:11:03;;;;;;;51.83;17.50;;;2.00;99.90;;;;;;5005875;28;20046;-63
2020/12/01 08:13:32;;;;;;;39.42;15.27;;;2.10;99.90;;;;;;5023426;28;20050;-63
2020/12/01 08:16:09;;;;;;;48.78;15.55;;;2.20;99.90;;;;;;5009704;28;20049;-63
2020/12/01 08:18:35;;;;;;;47.28;14.77;;;2.30;99.90;;;;;;5012296;28;20038;-63
2020/12/01 08:21:02;;;;;;;52.60;16.88;;;2.40;99.90;;;;;;5012101;28;20111;-63
2020/12/01 08:23:31;;;;;;;44.60;15.15;;;2.50;99.90;;;;;;5048739;28;20115;-63
2020/12/01 08:26:17;;;;;;;48.53;16.45;;;2.50;99.90;;;;;;5015025;28;20041;-63
2020/12/01 08:28:55;;;;;;;49.25;16.48;;;2.60;99.90;;;;;;5014283;28;20104;-65
2020/12/01 08:31:40;;;;;;;52.05;16.75;;;2.60;99.90;;;;;;5014603;28;20053;-65
2020/12/01 08:34:08;;;;;;;46.03;15.52;;;2.70;99.90;;;;;;5013790;28;20056;-64
2020/12/01 08:36:48;;;;;;;45.42;14.23;;;2.90;99.90;;;;;;5012219;28;20045;-63
2020/12/01 08:39:51;;;;;;;39.20;14.32;;;2.90;99.90;;;;;;5011961;28;20038;-62
2020/12/01 08:42:50;;;;;;;60.28;16.40;;;2.90;99.90;;;;;;5011719;28;20759;-64
2020/12/01 08:45:25;;;;;;;48.90;16.85;;;3.00;99.90;;;;;;5012729;28;20038;-65
2020/12/01 08:48:01;;;;;;;46.63;16.85;;;3.10;99.90;;;;;;5013554;28;20057;-63
2020/12/01 08:50:39;;;;;;;41.78;14.57;;;3.30;99.90;;;;;;5013224;28;20053;-63
2020/12/01 08:53:18;;;;;;;40.72;13.98;;;3.50;99.90;;;;;;5006792;28;20692;-63
2020/12/01 08:55:52;;;;;;;43.10;14.32;;;3.60;99.90;;;;;;5014356;28;20057;-63
2020/12/01 08:58:31;;;;;;;41.53;14.23;;;3.70;99.90;;;;;;5013103;28;20046;-63
2020/12/01 09:01:12;;;;;;;41.63;14.55;;;3.70;99.90;;;;;;5040657;28;20057;-63
2020/12/01 09:03:52;;;;;;;40.90;14.82;;;3.80;99.90;;;;;;5021440;28;20042;-63
2020/12/01 09:06:31;;;;;;;44.80;15.38;;;3.90;99.90;;;;;;5003944;28;20042;-62
2020/12/01 09:09:05;;;;;;;44.17;15.18;;;3.90;99.90;;;;;;5012275;28;20046;-62
2020/12/01 09:11:58;;;;;;;47.50;15.80;;;3.90;99.90;;;;;;5011402;28;20052;-63
2020/12/01 09:17:23;;;;;;;44.00;13.82;;;4.00;99.90;;;;;;5002724;28;20856;-63
2020/12/01 09:20:10;;;;;;;37.97;12.63;;;4.00;99.90;;;;;;5004269;28;20034;-64
2020/12/01 09:22:37;;;;;;;33.90;12.13;;;4.00;99.90;;;;;;5014703;28;20439;-63
2020/12/01 09:25:18;;;;;;;43.00;13.35;;;4.10;99.90;;;;;;5005961;28;20914;-62
2020/12/01 09:27:47;;;;;;;40.00;13.52;;;4.10;99.90;;;;;;5007635;28;20050;-62
2020/12/01 09:30:34;;;;;;;36.15;11.93;;;4.10;99.90;;;;;;5008557;28;20572;-62
2020/12/01 09:33:04;;;;;;;37.17;11.90;;;4.10;99.90;;;;;;5038849;28;20169;-63
2020/12/01 09:35:30;;;;;;;38.80;13.35;;;4.20;99.90;;;;;;5013796;28;20045;-63
2020/12/01 09:37:57;;;;;;;41.28;13.57;;;4.50;99.90;;;;;;5015613;28;20134;-62
2020/12/01 09:40:26;;;;;;;39.15;12.98;;;4.70;99.90;;;;;;5011925;28;20045;-63
2020/12/01 09:42:59;;;;;;;36.25;13.82;;;4.80;99.90;;;;;;5017835;28;20046;-63
2020/12/01 09:45:30;;;;;;;35.70;11.70;;;5.10;99.40;;;;;;5010145;28;20096;-63
2020/12/01 09:50:30;;;;;;;37.58;13.32;;;5.20;96.90;;;;;;5008691;28;20056;-62
2020/12/01 09:53:12;;;;;;;;;;;5.60;96.40;;;;;;4999434;28;20634;-62
2020/12/01 09:55:55;;;;;;;33.20;11.13;;;5.80;93.80;;;;;;5039056;28;19925;-63
2020/12/01 10:35:22;;;;;;;24.05;9.32;;;7.90;72.70;;;;;;5005275;28;20038;-63
2020/12/01 10:37:54;;;;;;;26.20;9.32;;;7.90;71.60;;;;;;5017567;28;20042;-64
2020/12/01 10:40:23;;;;;;;25.17;9.20;;;8.00;70.50;;;;;;5006560;28;20096;-64
2020/12/01 10:42:49;;;;;;;25.20;9.75;;;7.80;71.80;;;;;;5006151;28;20034;-63
2020/12/01 10:45:18;;;;;;;29.52;10.70;;;7.50;72.50;;;;;;5002455;28;20046;-63
2020/12/01 10:47:45;;;;;;;28.35;10.85;;;6.90;74.60;;;;;;4999608;28;20042;-63
2020/12/01 10:50:13;;;;;;;26.67;10.85;;;6.60;77.20;;;;;;5037492;28;20045;-63
2020/12/01 10:52:40;;;;;;;28.50;11.23;;;6.80;77.20;;;;;;5010669;28;20049;-63
2020/12/01 10:55:07;;;;;;;25.70;9.50;;;7.00;77.00;;;;;;5010767;28;20049;-64
2020/12/01 10:57:35;;;;;;;26.77;9.75;;;7.40;75.90;;;;;;5007470;28;20065;-64
2020/12/01 11:00:07;;;;;;;23.95;10.45;;;7.70;73.10;;;;;;5005002;28;20046;-64
2020/12/01 11:02:35;;;;;;;23.90;9.20;;;8.00;72.00;;;;;;5014704;28;20041;-64
2020/12/01 11:05:06;;;;;;;21.23;8.60;;;8.30;69.60;;;;;;5004342;28;20129;-64
2020/12/01 11:07:32;;;;;;;25.85;9.65;;;8.60;68.20;;;;;;5011050;28;20046;-64
2020/12/01 11:09:59;;;;;;;21.45;8.68;;;8.90;66.50;;;;;;5006373;28;20607;-62
2020/12/01 11:12:26;;;;;;;26.48;9.68;;;9.10;65.10;;;;;;5011877;28;20115;-62
2020/12/01 11:14:53;;;;;;;19.35;7.82;;;9.40;63.50;;;;;;4996503;28;20054;-62
2020/12/01 11:17:21;;;;;;;21.85;8.70;;;9.40;62.50;;;;;;5002960;28;20042;-61
2020/12/01 11:19:49;;;;;;;22.92;9.45;;;9.60;62.50;;;;;;5002857;28;20096;-62
2020/12/01 11:22:17;;;;;;;27.27;10.50;;;9.70;61.30;;;;;;5003288;28;20048;-62
2020/12/01 11:24:43;;;;;;;23.85;8.90;;;9.80;62.40;;;;;;5005063;28;20139;-63
2020/12/01 11:27:10;;;;;;;26.25;10.73;;;9.50;63.00;;;;;;5000436;28;20041;-62
2020/12/01 11:29:37;;;;;;;25.10;9.85;;;9.70;62.10;;;;;;5004988;28;20052;-61
2020/12/01 11:32:04;;;;;;;23.30;8.95;;;9.80;61.70;;;;;;5005958;28;20103;-63
2020/12/01 11:34:31;;;;;;;23.33;9.00;;;9.70;61.50;;;;;;5008828;28;20042;-62
2020/12/01 11:36:58;;;;;;;25.40;8.73;;;10.00;59.90;;;;;;5004820;28;20497;-61
2020/12/01 11:39:25;;;;;;;19.42;8.43;;;10.20;58.90;;;;;;5018474;28;20057;-61
2020/12/01 11:41:52;;;;;;;27.90;10.48;;;10.10;59.30;;;;;;5010716;28;20448;-62
2020/12/01 11:44:19;;;;;;;23.38;8.90;;;10.00;59.60;;;;;;5029435;28;20045;-61
2020/12/01 11:46:46;;;;;;;28.85;10.07;;;10.00;59.20;;;;;;5001712;28;20049;-62
2020/12/01 11:49:14;;;;;;;24.13;10.65;;;10.00;59.50;;;;;;5037032;28;21741;-61
2020/12/01 11:51:41;;;;;;;21.45;7.88;;;10.00;60.20;;;;;;5007131;28;20053;-62
2020/12/01 11:54:10;;;;;;;26.45;9.65;;;9.80;59.90;;;;;;5002442;28;20066;-61
2020/12/01 11:56:37;;;;;;;22.80;9.35;;;9.80;60.80;;;;;;5008382;28;20054;-62
2020/12/01 11:59:06;;;;;;;22.23;8.82;;;10.00;60.20;;;;;;5001752;28;20072;-61
2020/12/01 12:01:35;;;;;;;20.52;8.02;;;10.00;58.50;;;;;;5004882;28;20534;-61
2020/12/01 12:04:04;;;;;;;23.05;9.18;;;9.90;59.30;;;;;;5004185;28;20100;-61
2020/12/01 12:06:36;;;;;;;32.50;11.77;;;10.00;59.60;;;;;;5003263;28;20598;-61
2020/12/01 12:09:08;;;;;;;21.67;9.45;;;10.30;59.80;;;;;;5032274;28;20124;-61
2020/12/01 12:11:35;;;;;;;25.77;10.55;;;10.30;58.70;;;;;;5001604;28;20783;-61
2020/12/01 12:14:04;;;;;;;29.05;11.10;;;10.30;59.10;;;;;;5001385;28;20058;-61
2020/12/01 12:16:31;;;;;;;24.70;9.85;;;10.30;59.90;;;;;;5007573;28;20062;-62
2020/12/01 12:18:58;;;;;;;25.98;10.43;;;10.50;59.70;;;;;;5005166;28;20038;-62
2020/12/01 12:21:24;;;;;;;24.40;9.30;;;10.70;59.40;;;;;;5003264;28;20065;-62
2020/12/01 12:23:51;;;;;;;26.17;11.02;;;10.70;58.70;;;;;;5006038;28;20042;-62
2020/12/01 12:26:18;;;;;;;23.60;9.75;;;10.40;59.80;;;;;;5006700;28;20493;-62
2020/12/01 12:28:48;;;;;;;29.00;11.52;;;10.20;60.40;;;;;;5006243;28;20050;-61
2020/12/01 12:31:17;;;;;;;23.70;9.95;;;10.00;61.70;;;;;;5004150;28;20037;-61
2020/12/01 12:33:44;;;;;;;27.67;10.70;;;9.90;61.60;;;;;;5000675;28;20069;-61
2020/12/01 12:36:11;;;;;;;24.80;10.07;;;9.80;62.80;;;;;;5015901;28;20052;-61
2020/12/01 12:38:38;;;;;;;27.90;11.30;;;9.70;63.40;;;;;;5013973;28;20104;-61
2020/12/01 12:41:05;;;;;;;24.20;9.70;;;9.70;63.10;;;;;;5006168;28;20041;-61
2020/12/01 12:43:32;;;;;;;21.40;8.93;;;9.40;64.90;;;;;;5007806;28;20046;-61
2020/12/01 12:45:59;;;;;;;28.33;10.52;;;9.20;64.60;;;;;;5005900;28;20042;-62
2020/12/01 12:48:28;;;;;;;27.60;11.68;;;8.90;65.60;;;;;;4996102;28;20443;-62
2020/12/01 12:50:55;;;;;;;27.85;10.68;;;8.60;67.80;;;;;;5006548;28;20535;-62
2020/12/01 12:53:23;;;;;;;31.40;12.50;;;8.30;69.60;;;;;;5006246;28;20046;-62
2020/12/01 12:55:49;;;;;;;29.65;11.82;;;7.90;71.70;;;;;;4995582;28;20046;-62
2020/12/01 12:58:16;;;;;;;30.17;11.98;;;7.50;73.00;;;;;;5000833;28;20493;-64
2020/12/01 13:00:43;;;;;;;33.00;12.60;;;7.10;74.10;;;;;;5013732;28;20054;-64
2020/12/01 13:03:09;;;;;;;32.88;12.43;;;6.90;75.10;;;;;;5010247;28;20050;-63
2020/12/01 13:05:36;;;;;;;28.50;11.30;;;6.30;76.70;;;;;;5012535;28;20480;-62
2020/12/01 13:08:05;;;;;;;36.05;12.70;;;5.80;78.90;;;;;;5005876;28;20049;-63
2020/12/01 13:10:32;;;;;;;29.58;11.48;;;5.60;80.20;;;;;;5002808;28;20489;-63
2020/12/01 13:13:00;;;;;;;31.63;11.55;;;5.30;81.30;;;;;;5007719;28;20045;-63
2020/12/01 13:15:28;;;;;;;32.58;12.05;;;5.20;81.60;;;;;;5013097;28;20057;-63
2020/12/01 13:17:58;;;;;;;32.78;13.05;;;5.20;82.90;;;;;;5011386;28;20045;-63
2020/12/01 13:20:27;;;;;;;36.33;12.98;;;5.00;84.00;;;;;;5016463;28;20412;-63
2020/12/01 13:22:54;;;;;;;33.08;11.48;;;4.90;85.10;;;;;;5009145;28;20046;-63
2020/12/01 13:25:21;;;;;;;30.85;11.93;;;4.80;85.60;;;;;;5002286;28;20044;-63
2020/12/01 13:27:48;;;;;;;37.50;13.45;;;4.50;87.60;;;;;;5011437;28;20049;-63
2020/12/01 13:30:17;;;;;;;35.58;12.02;;;4.40;88.80;;;;;;5024203;28;20044;-63
2020/12/01 13:32:44;;;;;;;37.92;12.90;;;4.50;89.20;;;;;;5011825;28;20062;-63
2020/12/01 13:35:15;;;;;;;37.20;12.77;;;4.60;89.00;;;;;;5011472;28;20038;-63
2020/12/01 13:37:42;;;;;;;33.75;12.50;;;4.70;88.70;;;;;;5008350;28;20045;-63
2020/12/01 13:40:12;;;;;;;37.13;14.43;;;4.70;87.30;;;;;;5006382;28;20041;-63
2020/12/01 13:42:39;;;;;;;29.60;11.70;;;4.40;88.90;;;;;;5008379;28;20412;-63
2020/12/01 13:45:07;;;;;;;38.72;12.80;;;4.20;89.10;;;;;;5008392;28;20034;-63
2020/12/01 13:47:36;;;;;;;30.73;10.20;;;4.10;89.80;;;;;;5007474;28;20042;-63